Time;durP1;ratioP1;P1;durP2;ratioP2;P2;SDS_P1;SDS_P2;PMS_P1;PMS_P2;Temp;Humidity;BMP_temperature;BMP_pressure;BME280_temperature;BME280_humidity;BME280_pressure;Samples;Min_cycle;Max_cycle;Signal;HPM_P1;HPM_P2
2022/01/05 00:02:06;;;;;;;1.20;0.97;;;7.70;99.90;;;;;;5023836;28;21032;-53
2022/01/05 00:04:32;;;;;;;1.10;0.83;;;7.70;99.90;;;;;;5019542;28;20453;-55
2022/01/05 00:06:58;;;;;;;1.10;0.80;;;7.70;99.90;;;;;;5022697;28;20535;-55
2022/01/05 00:09:23;;;;;;;1.30;1.00;;;7.70;99.90;;;;;;5019868;28;20582;-53
2022/01/05 00:11:49;;;;;;;1.30;0.90;;;7.70;99.90;;;;;;5024249;28;20195;-52
2022/01/05 00:14:14;;;;;;;1.20;0.80;;;7.70;99.90;;;;;;5023272;28;20685;-52
2022/01/05 00:16:40;;;;;;;1.20;0.90;;;7.70;99.90;;;;;;5023766;28;20241;-52
2022/01/05 00:19:06;;;;;;;1.80;0.90;;;7.60;99.90;;;;;;5024109;28;20641;-54
2022/01/05 00:21:31;;;;;;;1.30;0.90;;;7.70;99.90;;;;;;5023484;28;20208;-53
2022/01/05 00:23:59;;;;;;;1.10;1.00;;;7.70;99.90;;;;;;5021730;28;20188;-54
2022/01/05 00:26:27;;;;;;;1.40;0.90;;;7.70;99.90;;;;;;5022314;28;20642;-51
2022/01/05 00:28:54;;;;;;;1.10;0.90;;;7.70;99.90;;;;;;5023012;28;20546;-55
2022/01/05 00:31:19;;;;;;;1.30;0.90;;;7.80;99.90;;;;;;5026907;28;20462;-57
2022/01/05 00:33:45;;;;;;;1.20;0.90;;;7.80;99.90;;;;;;5021193;28;20976;-55
2022/01/05 00:36:11;;;;;;;1.17;0.93;;;7.80;99.90;;;;;;5021059;28;20601;-53
2022/01/05 00:38:37;;;;;;;1.20;0.90;;;7.80;99.90;;;;;;5023521;28;20199;-55
2022/01/05 00:41:04;;;;;;;1.10;0.80;;;7.80;99.90;;;;;;5023368;28;20662;-56
2022/01/05 00:43:30;;;;;;;1.10;0.80;;;7.70;99.90;;;;;;5023780;28;20504;-52
2022/01/05 00:45:57;;;;;;;1.20;0.87;;;7.70;99.90;;;;;;5020292;28;21220;-54
2022/01/05 00:48:22;;;;;;;1.13;0.80;;;7.70;99.90;;;;;;5022512;28;20466;-54
2022/01/05 00:50:48;;;;;;;1.30;0.90;;;7.80;99.90;;;;;;5025493;28;20434;-53
2022/01/05 00:53:13;;;;;;;1.10;0.87;;;7.80;99.90;;;;;;5022350;28;20268;-52
2022/01/05 00:55:39;;;;;;;1.30;1.00;;;7.70;99.90;;;;;;5028543;28;20216;-52
2022/01/05 00:58:05;;;;;;;2.13;1.00;;;7.70;99.90;;;;;;5023688;28;20211;-53
2022/01/05 01:00:31;;;;;;;1.30;1.10;;;7.80;99.90;;;;;;5024857;28;20243;-51
2022/01/05 01:02:56;;;;;;;1.10;0.83;;;7.80;99.90;;;;;;5026368;28;20600;-54
2022/01/05 01:05:22;;;;;;;2.27;1.00;;;7.80;99.90;;;;;;5025157;28;20194;-52
2022/01/05 01:07:48;;;;;;;1.23;0.90;;;7.70;99.90;;;;;;5024506;28;20521;-51
2022/01/05 01:10:14;;;;;;;3.60;1.30;;;7.60;99.90;;;;;;5020041;28;20372;-53
2022/01/05 01:12:40;;;;;;;2.17;0.90;;;7.60;99.90;;;;;;5018592;28;20235;-53
2022/01/05 01:15:08;;;;;;;1.20;0.90;;;7.60;99.90;;;;;;5019606;28;20498;-51
2022/01/05 01:17:34;;;;;;;1.30;0.80;;;7.60;99.90;;;;;;5020578;28;20268;-54
2022/01/05 01:20:00;;;;;;;1.30;1.10;;;7.60;99.90;;;;;;5025164;28;20513;-54
2022/01/05 01:22:28;;;;;;;1.20;1.00;;;7.50;99.90;;;;;;5021817;28;20431;-54
2022/01/05 01:24:54;;;;;;;1.50;1.20;;;7.50;99.90;;;;;;5021069;28;20437;-51
2022/01/05 01:27:19;;;;;;;2.03;1.27;;;7.50;99.90;;;;;;5026862;28;20501;-51
2022/01/05 01:29:45;;;;;;;1.30;1.00;;;7.50;99.90;;;;;;5023722;28;20217;-54
2022/01/05 01:32:11;;;;;;;1.53;0.90;;;7.50;99.90;;;;;;5023709;28;20197;-50
2022/01/05 01:34:36;;;;;;;1.13;0.93;;;7.40;99.90;;;;;;5025401;28;20280;-55
2022/01/05 01:37:02;;;;;;;1.20;1.00;;;7.30;99.90;;;;;;5025486;28;20202;-52
2022/01/05 01:39:28;;;;;;;1.83;1.17;;;7.30;99.90;;;;;;5025895;28;20334;-51
2022/01/05 01:41:53;;;;;;;1.30;1.00;;;7.30;99.90;;;;;;5027841;28;21018;-55
2022/01/05 01:44:19;;;;;;;1.20;0.93;;;7.30;99.90;;;;;;5029036;28;20180;-51
2022/01/05 01:46:45;;;;;;;1.27;1.17;;;7.20;99.90;;;;;;5027383;28;20193;-51
2022/01/05 01:49:10;;;;;;;1.20;1.00;;;7.30;99.90;;;;;;5028956;28;20581;-54
2022/01/05 01:51:36;;;;;;;1.30;1.07;;;7.20;99.90;;;;;;5026898;28;20180;-49
2022/01/05 01:54:03;;;;;;;1.50;1.20;;;7.20;99.90;;;;;;5025886;28;20189;-55
2022/01/05 01:56:33;;;;;;;1.53;1.10;;;7.30;99.90;;;;;;5030089;28;20208;-55
2022/01/05 01:58:59;;;;;;;1.40;1.30;;;7.20;99.90;;;;;;5027323;28;20466;-50
2022/01/05 02:01:24;;;;;;;1.80;1.30;;;7.20;99.90;;;;;;5029652;28;20446;-53
2022/01/05 02:03:50;;;;;;;1.40;1.30;;;7.30;99.90;;;;;;5029650;28;20434;-52
2022/01/05 02:06:16;;;;;;;1.40;1.17;;;7.30;99.90;;;;;;5029066;28;20191;-51
2022/01/05 02:08:42;;;;;;;1.40;1.30;;;7.30;99.90;;;;;;5029850;28;20581;-55
2022/01/05 02:11:09;;;;;;;1.63;1.30;;;7.30;99.90;;;;;;5029336;28;20198;-52
2022/01/05 02:13:35;;;;;;;2.60;1.30;;;7.30;99.90;;;;;;5027305;28;20253;-52
2022/01/05 02:16:01;;;;;;;1.60;1.20;;;7.40;99.90;;;;;;5029087;28;20501;-52
2022/01/05 02:21:02;;;;;;;3.23;1.47;;;7.40;99.90;;;;;;5028444;28;20184;-53
2022/01/05 02:23:28;;;;;;;1.33;1.20;;;7.40;99.90;;;;;;5025177;28;20733;-51
2022/01/05 02:25:54;;;;;;;1.73;1.30;;;7.40;99.90;;;;;;5026881;28;20518;-51
2022/01/05 02:28:20;;;;;;;1.60;1.30;;;7.40;99.90;;;;;;5031130;28;20307;-51
2022/01/05 02:30:49;;;;;;;1.60;1.30;;;7.40;99.90;;;;;;5027554;28;20894;-52
2022/01/05 02:33:15;;;;;;;1.53;1.30;;;7.40;99.90;;;;;;5026886;28;20193;-49
2022/01/05 02:35:40;;;;;;;1.97;1.33;;;7.40;99.90;;;;;;5031762;28;20466;-51
2022/01/05 02:38:06;;;;;;;1.30;1.17;;;7.40;99.90;;;;;;5024901;28;20212;-52
2022/01/05 02:40:32;;;;;;;3.13;1.70;;;7.40;99.90;;;;;;5029392;28;20185;-50
2022/01/05 02:42:57;;;;;;;1.40;1.10;;;7.40;99.90;;;;;;5028499;28;20216;-49
2022/01/05 02:45:23;;;;;;;1.67;1.53;;;7.40;99.90;;;;;;5027298;28;20177;-49
2022/01/05 02:47:50;;;;;;;1.50;1.30;;;7.30;99.90;;;;;;5028097;28;20544;-53
2022/01/05 02:50:15;;;;;;;2.27;1.60;;;7.20;99.90;;;;;;5025392;28;20449;-50
2022/01/05 02:52:42;;;;;;;1.97;1.63;;;7.20;99.90;;;;;;5026426;28;20442;-53
2022/01/05 02:55:08;;;;;;;6.13;1.80;;;7.30;99.90;;;;;;5026057;28;20458;-52
2022/01/05 02:57:34;;;;;;;1.60;1.50;;;7.10;99.90;;;;;;5026295;28;20439;-49
2022/01/05 03:00:00;;;;;;;2.37;2.10;;;7.10;99.90;;;;;;5026227;28;20501;-52
2022/01/05 03:02:26;;;;;;;3.20;1.73;;;7.00;99.90;;;;;;5026662;28;20272;-51
2022/01/05 03:04:51;;;;;;;2.43;1.80;;;7.00;99.90;;;;;;5030384;28;20443;-50
2022/01/05 03:07:17;;;;;;;2.00;1.80;;;6.90;99.90;;;;;;5028760;28;20280;-53
2022/01/05 03:09:43;;;;;;;3.20;2.17;;;6.90;99.90;;;;;;5027532;28;20205;-50
2022/01/05 03:12:10;;;;;;;1.60;1.50;;;6.90;99.90;;;;;;5029865;28;20767;-54
2022/01/05 03:14:36;;;;;;;1.80;1.50;;;6.90;99.90;;;;;;5027514;28;20521;-53
2022/01/05 03:17:02;;;;;;;2.40;2.00;;;6.90;99.90;;;;;;5025431;28;20867;-54
2022/01/05 03:19:27;;;;;;;1.30;1.20;;;7.00;99.90;;;;;;5028394;28;20219;-54
2022/01/05 03:21:53;;;;;;;4.33;1.50;;;7.00;99.90;;;;;;5025922;28;20188;-53
2022/01/05 03:24:18;;;;;;;1.80;1.60;;;7.00;99.90;;;;;;5027269;28;20185;-52
2022/01/05 03:26:44;;;;;;;1.70;1.40;;;7.10;99.90;;;;;;5028923;28;20701;-50
2022/01/05 03:29:10;;;;;;;1.70;1.53;;;7.00;99.90;;;;;;5027243;28;20225;-51
2022/01/05 03:31:35;;;;;;;1.73;1.60;;;7.10;99.90;;;;;;5026741;28;20181;-49
2022/01/05 03:34:01;;;;;;;1.70;1.60;;;7.00;99.90;;;;;;5026197;28;20201;-54
2022/01/05 03:36:27;;;;;;;6.50;1.73;;;7.00;99.90;;;;;;5025656;28;20274;-53
2022/01/05 03:38:52;;;;;;;1.50;1.40;;;7.00;99.90;;;;;;5025766;28;20552;-52
2022/01/05 03:41:18;;;;;;;2.00;1.43;;;7.10;99.90;;;;;;5026815;28;20678;-54
2022/01/05 03:43:44;;;;;;;3.20;1.80;;;7.10;99.90;;;;;;5027305;28;20291;-49
2022/01/05 03:46:09;;;;;;;2.40;1.57;;;7.00;99.90;;;;;;5025327;28;20200;-49
2022/01/05 03:48:35;;;;;;;2.20;1.80;;;7.10;99.90;;;;;;5027169;28;20210;-51
2022/01/05 03:51:00;;;;;;;2.67;1.50;;;7.10;99.90;;;;;;5025175;28;20272;-49
2022/01/05 03:53:26;;;;;;;1.57;1.47;;;7.20;99.90;;;;;;5025857;28;20283;-55
2022/01/05 03:55:52;;;;;;;2.13;1.57;;;7.20;99.90;;;;;;5028503;28;20688;-51
2022/01/05 03:58:17;;;;;;;2.00;1.80;;;7.20;99.90;;;;;;5025956;28;20515;-52
2022/01/05 04:00:48;;;;;;;6.13;1.80;;;7.20;99.90;;;;;;5025850;28;20254;-53
2022/01/05 04:03:15;;;;;;;2.07;1.67;;;7.20;99.90;;;;;;5025009;28;20185;-51
2022/01/05 04:05:41;;;;;;;2.00;1.80;;;7.20;99.90;;;;;;5028485;28;20435;-50
2022/01/05 04:08:07;;;;;;;3.33;2.07;;;7.20;99.90;;;;;;5028941;28;20459;-54
2022/01/05 04:10:33;;;;;;;3.53;1.80;;;7.20;99.90;;;;;;5024120;28;20454;-48
2022/01/05 04:12:59;;;;;;;2.00;1.80;;;7.20;99.90;;;;;;5028193;28;20963;-53
2022/01/05 04:15:25;;;;;;;3.20;1.80;;;7.20;99.90;;;;;;5026476;28;20463;-52
2022/01/05 04:17:51;;;;;;;1.83;1.70;;;7.20;99.90;;;;;;5024501;28;20208;-50
2022/01/05 04:20:17;;;;;;;4.00;1.80;;;7.30;99.90;;;;;;5027872;28;20467;-51
2022/01/05 04:22:43;;;;;;;3.30;1.87;;;7.20;99.90;;;;;;5026069;28;20184;-50
2022/01/05 04:25:10;;;;;;;2.53;1.77;;;7.30;99.90;;;;;;5025946;28;20445;-52
2022/01/05 04:27:35;;;;;;;1.97;1.37;;;7.20;99.90;;;;;;5025196;28;20806;-51
2022/01/05 04:30:02;;;;;;;2.43;1.40;;;7.20;99.90;;;;;;5026980;28;20449;-50
2022/01/05 04:32:27;;;;;;;1.67;1.03;;;7.10;99.90;;;;;;5026837;28;20200;-54
2022/01/05 04:34:53;;;;;;;1.30;1.10;;;7.10;99.90;;;;;;5023096;28;20979;-53
2022/01/05 04:37:19;;;;;;;4.40;1.30;;;7.00;99.90;;;;;;5029490;28;20208;-52
2022/01/05 04:39:45;;;;;;;2.90;1.30;;;7.10;99.90;;;;;;5024932;28;20200;-51
2022/01/05 04:42:11;;;;;;;2.17;1.20;;;7.10;99.90;;;;;;5023226;28;20443;-50
2022/01/05 04:44:37;;;;;;;1.30;1.03;;;6.90;99.90;;;;;;5028344;28;20430;-55
2022/01/05 04:47:03;;;;;;;1.80;1.10;;;6.80;99.90;;;;;;5024793;28;21027;-54
2022/01/05 04:49:28;;;;;;;1.67;1.03;;;6.70;99.90;;;;;;5024780;28;20299;-54
2022/01/05 04:51:54;;;;;;;1.87;0.90;;;6.60;99.90;;;;;;5028182;28;20645;-54
2022/01/05 04:54:20;;;;;;;2.47;1.20;;;6.70;99.90;;;;;;5024130;28;20192;-51
2022/01/05 04:56:45;;;;;;;1.80;1.10;;;6.60;99.90;;;;;;5028069;28;20220;-54
2022/01/05 04:59:11;;;;;;;2.00;1.17;;;6.60;99.90;;;;;;5024289;28;20213;-51
2022/01/05 05:01:37;;;;;;;3.53;1.13;;;6.50;99.90;;;;;;5025935;28;20193;-55
2022/01/05 05:04:03;;;;;;;1.20;1.03;;;6.50;99.90;;;;;;5027134;28;20202;-51
2022/01/05 05:06:29;;;;;;;1.27;1.00;;;6.50;99.90;;;;;;5023957;28;20243;-51
2022/01/05 05:08:54;;;;;;;1.50;1.17;;;6.50;99.90;;;;;;5024901;28;21165;-54
2022/01/05 05:11:20;;;;;;;1.63;1.03;;;6.60;99.90;;;;;;5022807;28;20201;-54
2022/01/05 05:13:45;;;;;;;1.87;1.10;;;6.70;99.90;;;;;;5025676;28;20192;-52
2022/01/05 05:16:11;;;;;;;1.40;1.00;;;6.80;99.90;;;;;;5029555;28;20243;-50
2022/01/05 05:18:37;;;;;;;6.90;1.23;;;6.60;99.90;;;;;;5030845;28;20215;-54
2022/01/05 05:21:03;;;;;;;1.20;1.07;;;6.80;99.90;;;;;;5027554;28;20290;-51
2022/01/05 05:23:29;;;;;;;2.17;1.10;;;6.80;99.90;;;;;;5032264;28;20536;-54
2022/01/05 05:25:55;;;;;;;2.07;1.00;;;6.70;99.90;;;;;;5028141;28;20443;-53
2022/01/05 05:28:20;;;;;;;2.03;1.10;;;6.60;99.90;;;;;;5029712;28;20693;-52
2022/01/05 05:30:46;;;;;;;3.70;2.33;;;6.50;99.90;;;;;;5030437;28;20457;-55
2022/01/05 05:33:12;;;;;;;2.60;1.10;;;6.50;99.90;;;;;;5031086;28;20559;-60
2022/01/05 05:35:39;;;;;;;1.20;1.00;;;6.70;99.90;;;;;;5028522;28;20749;-52
2022/01/05 05:38:05;;;;;;;1.10;0.90;;;6.50;99.90;;;;;;5030617;28;20581;-51
2022/01/05 05:40:31;;;;;;;2.07;1.10;;;6.70;99.90;;;;;;5028374;28;20488;-52
2022/01/05 05:42:56;;;;;;;1.20;1.03;;;6.60;99.90;;;;;;5029740;28;20431;-51
2022/01/05 05:45:22;;;;;;;1.73;1.17;;;6.70;99.90;;;;;;5026370;28;20196;-52
2022/01/05 05:47:48;;;;;;;1.20;0.90;;;6.60;99.90;;;;;;5035798;28;20196;-49
2022/01/05 05:50:13;;;;;;;1.93;1.40;;;6.60;99.90;;;;;;5029194;28;20287;-50
2022/01/05 05:52:39;;;;;;;1.67;1.20;;;6.60;99.90;;;;;;5027036;28;20753;-52
2022/01/05 05:55:05;;;;;;;1.20;1.10;;;6.60;99.90;;;;;;5028215;28;20274;-52
2022/01/05 05:57:31;;;;;;;1.40;1.10;;;6.40;99.90;;;;;;5025000;28;20196;-51
2022/01/05 05:59:56;;;;;;;2.90;1.83;;;6.40;99.90;;;;;;5027686;28;20435;-53
2022/01/05 06:02:22;;;;;;;1.20;0.90;;;6.30;99.90;;;;;;5026610;28;20253;-50
2022/01/05 06:04:48;;;;;;;1.33;0.90;;;6.20;99.90;;;;;;5033400;28;20211;-54
2022/01/05 06:07:13;;;;;;;1.30;1.00;;;6.30;99.90;;;;;;5034441;28;20196;-51
2022/01/05 06:09:39;;;;;;;1.60;1.40;;;6.00;99.90;;;;;;5027173;28;20200;-53
2022/01/05 06:12:05;;;;;;;1.40;1.17;;;6.10;99.90;;;;;;5027564;28;20200;-50
2022/01/05 06:14:30;;;;;;;3.30;1.40;;;6.00;99.90;;;;;;5032229;28;20245;-52
2022/01/05 06:16:56;;;;;;;1.30;1.20;;;5.90;99.90;;;;;;5026271;28;20483;-50
2022/01/05 06:19:21;;;;;;;5.33;1.30;;;5.90;99.90;;;;;;5029987;28;20216;-49
2022/01/05 06:21:50;;;;;;;3.43;1.87;;;5.80;99.90;;;;;;5025357;28;20192;-50
2022/01/05 06:24:16;;;;;;;2.53;1.70;;;5.70;99.90;;;;;;5027612;28;20246;-49
2022/01/05 06:26:42;;;;;;;3.07;1.53;;;5.60;99.90;;;;;;5028810;28;20456;-50
2022/01/05 06:29:08;;;;;;;3.83;1.53;;;5.40;99.90;;;;;;5025698;28;20473;-52
2022/01/05 06:31:34;;;;;;;3.20;2.07;;;5.40;99.90;;;;;;5026259;28;20184;-51
2022/01/05 06:34:00;;;;;;;2.73;1.40;;;5.50;99.90;;;;;;5027530;28;20442;-49
2022/01/05 06:36:25;;;;;;;1.63;1.40;;;5.70;99.90;;;;;;5026396;28;20471;-50
2022/01/05 06:38:51;;;;;;;4.03;2.00;;;5.70;99.90;;;;;;5028687;28;20571;-50
2022/01/05 06:41:16;;;;;;;2.97;1.87;;;5.60;99.90;;;;;;5026432;28;20299;-52
2022/01/05 06:43:42;;;;;;;2.63;2.40;;;5.50;99.90;;;;;;5026980;28;20195;-51
2022/01/05 06:46:07;;;;;;;3.47;1.80;;;5.60;99.90;;;;;;5025837;28;20192;-51
2022/01/05 06:48:33;;;;;;;2.03;1.50;;;5.70;99.90;;;;;;5025507;28;20366;-49
2022/01/05 06:50:59;;;;;;;5.87;1.70;;;5.60;99.90;;;;;;5026499;28;20745;-51
2022/01/05 06:53:24;;;;;;;1.77;1.33;;;5.60;99.90;;;;;;5024889;28;20266;-52
2022/01/05 06:55:50;;;;;;;4.90;1.40;;;5.60;99.90;;;;;;5025357;28;20208;-51
2022/01/05 06:58:15;;;;;;;4.63;1.93;;;5.60;99.90;;;;;;5027682;28;20207;-53
2022/01/05 07:00:41;;;;;;;2.70;1.63;;;5.50;99.90;;;;;;5023689;28;20188;-52
2022/01/05 07:03:07;;;;;;;3.10;1.93;;;5.60;99.90;;;;;;5025074;28;20311;-52
2022/01/05 07:05:32;;;;;;;3.33;1.90;;;5.40;99.90;;;;;;5026009;28;20185;-53
2022/01/05 07:07:58;;;;;;;3.60;2.10;;;5.30;99.90;;;;;;5025131;28;21118;-53
2022/01/05 07:10:24;;;;;;;2.57;2.00;;;5.40;99.90;;;;;;5025583;28;20184;-54
2022/01/05 07:12:50;;;;;;;2.73;1.90;;;5.30;99.90;;;;;;5026405;28;20541;-52
2022/01/05 07:15:16;;;;;;;4.03;1.87;;;5.40;99.90;;;;;;5026218;28;20475;-50
2022/01/05 07:17:42;;;;;;;3.10;2.10;;;5.20;99.90;;;;;;5028195;28;20184;-53
2022/01/05 07:20:09;;;;;;;2.27;1.63;;;5.20;99.90;;;;;;5024086;28;20458;-54
2022/01/05 07:22:36;;;;;;;5.10;2.30;;;5.20;99.90;;;;;;5029567;28;20475;-52
2022/01/05 07:25:03;;;;;;;4.50;2.57;;;5.20;99.90;;;;;;5024204;28;20431;-53
2022/01/05 07:27:28;;;;;;;4.00;2.53;;;5.20;99.90;;;;;;5027069;28;20430;-51
2022/01/05 07:29:54;;;;;;;3.30;2.47;;;5.20;99.90;;;;;;5026545;28;20462;-54
2022/01/05 07:32:20;;;;;;;3.20;2.30;;;5.20;99.90;;;;;;5024282;28;20421;-53
2022/01/05 07:34:45;;;;;;;3.80;2.20;;;5.00;99.90;;;;;;5024759;28;20214;-52
2022/01/05 07:37:11;;;;;;;8.73;3.07;;;5.10;99.90;;;;;;5027150;28;20189;-53
2022/01/05 07:39:37;;;;;;;5.10;2.67;;;5.10;99.90;;;;;;5024377;28;20216;-52
2022/01/05 07:42:03;;;;;;;6.47;2.50;;;5.00;99.90;;;;;;5024390;28;20220;-53
2022/01/05 07:44:29;;;;;;;6.30;2.30;;;5.00;99.90;;;;;;5024610;28;20457;-54
2022/01/05 07:46:55;;;;;;;5.30;3.37;;;5.10;99.90;;;;;;5021540;28;20944;-50
2022/01/05 07:49:20;;;;;;;4.37;2.60;;;5.00;99.90;;;;;;5024602;28;20698;-55
2022/01/05 07:51:46;;;;;;;5.27;3.10;;;5.00;99.90;;;;;;5025998;28;20544;-50
2022/01/05 07:54:12;;;;;;;6.63;2.30;;;5.00;99.90;;;;;;5025352;28;20215;-54
2022/01/05 07:56:37;;;;;;;4.37;2.43;;;4.90;99.90;;;;;;5023753;28;20595;-54
2022/01/05 07:59:03;;;;;;;4.70;2.50;;;5.00;99.90;;;;;;5024791;28;20234;-53
2022/01/05 08:01:29;;;;;;;3.00;2.30;;;4.80;99.90;;;;;;5023923;28;20188;-51
2022/01/05 08:03:55;;;;;;;3.60;1.73;;;4.80;99.90;;;;;;5023147;28;20963;-51
2022/01/05 08:06:21;;;;;;;4.80;2.50;;;4.70;99.90;;;;;;5025779;28;20566;-55
2022/01/05 08:08:49;;;;;;;7.30;2.77;;;4.60;99.90;;;;;;5022906;28;20582;-51
2022/01/05 08:11:15;;;;;;;6.00;2.70;;;4.50;99.90;;;;;;5022230;28;20537;-52
2022/01/05 08:13:41;;;;;;;3.50;1.90;;;4.60;99.90;;;;;;5027121;28;20443;-54
2022/01/05 08:16:07;;;;;;;4.33;2.53;;;4.60;99.90;;;;;;5022232;28;20470;-55
2022/01/05 08:18:33;;;;;;;5.30;2.17;;;4.50;99.90;;;;;;5024791;28;20204;-55
2022/01/05 08:20:59;;;;;;;3.37;2.20;;;4.50;99.90;;;;;;5025906;28;20220;-52
2022/01/05 08:23:25;;;;;;;7.53;3.00;;;4.50;99.90;;;;;;5022602;28;20858;-53
2022/01/05 08:25:52;;;;;;;5.20;2.03;;;4.40;99.90;;;;;;5025911;28;20195;-54
2022/01/05 08:28:19;;;;;;;6.70;2.57;;;4.50;99.90;;;;;;5024943;28;20471;-53
2022/01/05 08:30:45;;;;;;;6.00;2.43;;;4.40;99.90;;;;;;5022746;28;20514;-53
2022/01/05 08:33:13;;;;;;;7.37;2.40;;;4.50;99.90;;;;;;5019155;28;20554;-53
2022/01/05 08:35:39;;;;;;;3.83;1.83;;;4.40;99.90;;;;;;5022090;28;20852;-54
2022/01/05 08:38:04;;;;;;;2.87;2.37;;;4.50;99.90;;;;;;5023767;28;20467;-54
2022/01/05 08:40:32;;;;;;;2.57;2.10;;;4.50;99.90;;;;;;5023166;28;20195;-55
2022/01/05 08:42:58;;;;;;;5.13;2.07;;;4.40;99.90;;;;;;5023620;28;20698;-53
2022/01/05 08:45:24;;;;;;;6.53;2.40;;;4.40;99.90;;;;;;5025902;28;20442;-52
2022/01/05 08:47:51;;;;;;;3.67;2.07;;;4.40;99.90;;;;;;5024004;28;20212;-53
2022/01/05 08:50:20;;;;;;;8.60;2.60;;;4.40;99.90;;;;;;5029672;28;20519;-51
2022/01/05 08:52:47;;;;;;;5.30;3.30;;;4.40;99.90;;;;;;5027099;28;20451;-50
2022/01/05 08:55:14;;;;;;;3.87;2.37;;;4.40;99.90;;;;;;5028136;28;20473;-53
2022/01/05 08:57:42;;;;;;;2.20;2.00;;;4.40;99.90;;;;;;5026342;28;20806;-52
2022/01/05 09:00:08;;;;;;;5.93;2.20;;;4.40;99.90;;;;;;5026815;28;20512;-51
2022/01/05 09:02:34;;;;;;;10.23;2.67;;;4.50;99.90;;;;;;5029393;28;20811;-53
2022/01/05 09:05:00;;;;;;;4.30;2.97;;;4.50;99.90;;;;;;5025649;28;20435;-52
2022/01/05 09:07:25;;;;;;;4.90;3.03;;;4.60;99.90;;;;;;5028403;28;20185;-54
2022/01/05 09:09:51;;;;;;;7.43;2.50;;;4.60;99.90;;;;;;5026515;28;20212;-52
2022/01/05 09:12:17;;;;;;;6.57;2.50;;;4.60;99.90;;;;;;5026808;28;20181;-49
2022/01/05 09:14:42;;;;;;;8.57;2.60;;;4.70;99.90;;;;;;5030787;28;20176;-53
2022/01/05 09:17:09;;;;;;;4.00;2.30;;;4.70;99.90;;;;;;5025933;28;20681;-52
2022/01/05 09:19:35;;;;;;;10.13;3.63;;;4.60;99.90;;;;;;5024723;28;20689;-51
2022/01/05 09:22:01;;;;;;;10.73;2.67;;;4.60;99.90;;;;;;5029444;28;20430;-50
2022/01/05 09:24:27;;;;;;;7.30;3.13;;;4.60;99.90;;;;;;5026253;28;20250;-54
2022/01/05 09:26:53;;;;;;;5.10;3.10;;;4.70;99.90;;;;;;5025841;28;20435;-50
2022/01/05 09:29:18;;;;;;;5.43;2.00;;;4.50;99.90;;;;;;5026147;28;20216;-55
2022/01/05 09:31:45;;;;;;;7.90;3.10;;;4.50;99.90;;;;;;5028569;28;20638;-54
2022/01/05 09:34:11;;;;;;;7.10;3.10;;;4.60;99.90;;;;;;5028536;28;20478;-52
2022/01/05 09:36:42;;;;;;;11.33;4.13;;;4.60;99.90;;;;;;5023342;28;20507;-55
2022/01/05 09:42:05;;;;;;;9.67;2.57;;;4.50;99.90;;;;;;5028936;28;20573;-50
2022/01/05 09:44:41;;;;;;;9.63;4.33;;;4.60;99.90;;;;;;5023645;28;20442;-52
2022/01/05 09:47:51;;;;;;;3.00;2.70;;;4.60;99.90;;;;;;5028360;28;20443;-52
2022/01/05 09:50:19;;;;;;;10.57;2.97;;;4.60;99.90;;;;;;5013736;28;20449;-53
2022/01/05 09:52:46;;;;;;;14.67;3.33;;;4.60;99.90;;;;;;5024666;28;20538;-50
2022/01/05 09:55:13;;;;;;;3.67;2.70;;;4.50;99.90;;;;;;5027820;28;22361;-50
2022/01/05 09:57:41;;;;;;;4.77;2.50;;;4.60;99.90;;;;;;5026950;28;20774;-53
2022/01/05 10:00:08;;;;;;;7.23;2.97;;;4.60;99.90;;;;;;5024750;28;20454;-54
2022/01/05 10:02:34;;;;;;;11.30;3.23;;;4.50;99.90;;;;;;5026325;28;21127;-50
2022/01/05 10:05:01;;;;;;;10.43;2.90;;;4.60;99.90;;;;;;5023640;28;20446;-51
2022/01/05 10:07:27;;;;;;;6.27;2.47;;;4.60;99.90;;;;;;5026711;28;20275;-51
2022/01/05 10:09:52;;;;;;;8.90;3.27;;;4.70;99.90;;;;;;5026463;28;20447;-54
2022/01/05 10:12:20;;;;;;;6.17;3.20;;;4.70;99.90;;;;;;5024471;28;20787;-49
2022/01/05 10:14:48;;;;;;;12.77;3.60;;;4.70;99.90;;;;;;5024980;28;20778;-50
2022/01/05 10:17:24;;;;;;;7.17;2.60;;;4.70;99.90;;;;;;5026239;28;20497;-53
2022/01/05 10:20:06;;;;;;;7.27;3.00;;;4.80;99.90;;;;;;5026838;28;20459;-52
2022/01/05 10:22:33;;;;;;;7.83;2.90;;;4.70;99.90;;;;;;5028402;28;20434;-50
2022/01/05 10:25:02;;;;;;;8.83;3.60;;;4.70;99.90;;;;;;5024110;28;20450;-53
2022/01/05 10:27:28;;;;;;;7.20;3.00;;;4.80;99.90;;;;;;5026210;28;20482;-53
2022/01/05 10:30:01;;;;;;;11.87;3.00;;;4.80;99.90;;;;;;5029887;28;20486;-50
2022/01/05 10:32:33;;;;;;;8.83;3.20;;;4.70;99.90;;;;;;5024661;28;20456;-52
2022/01/05 10:35:24;;;;;;;9.77;2.83;;;4.80;99.90;;;;;;5025779;28;20529;-53
2022/01/05 10:38:03;;;;;;;6.90;3.13;;;4.90;99.90;;;;;;5028927;28;20451;-51
2022/01/05 10:40:33;;;;;;;11.33;3.00;;;4.90;99.90;;;;;;5025560;28;20553;-50
2022/01/05 10:43:05;;;;;;;6.77;2.97;;;4.70;99.90;;;;;;5027176;28;20427;-49
2022/01/05 10:45:49;;;;;;;6.93;2.93;;;4.70;99.90;;;;;;5026336;28;20451;-50
2022/01/05 10:48:17;;;;;;;8.03;3.40;;;4.60;99.90;;;;;;5023170;28;20994;-53
2022/01/05 10:50:45;;;;;;;7.30;2.60;;;4.60;99.90;;;;;;5025897;28;21019;-54
2022/01/05 10:53:20;;;;;;;8.30;2.50;;;4.60;99.90;;;;;;5023196;28;20478;-54
2022/01/05 10:55:47;;;;;;;13.23;3.10;;;4.70;99.90;;;;;;5025969;28;20504;-53
2022/01/05 10:58:17;;;;;;;4.43;2.93;;;4.70;99.90;;;;;;5025674;28;20460;-54
2022/01/05 11:00:54;;;;;;;7.93;2.50;;;4.70;99.90;;;;;;5026062;28;21163;-51
2022/01/05 11:03:30;;;;;;;5.37;3.33;;;4.80;99.90;;;;;;5022973;28;21031;-49
2022/01/05 11:06:03;;;;;;;8.20;2.50;;;4.80;99.90;;;;;;5026129;28;20439;-53
2022/01/05 11:08:30;;;;;;;8.13;3.20;;;4.70;99.90;;;;;;5026224;28;21020;-53
2022/01/05 11:10:56;;;;;;;8.97;3.00;;;4.70;99.90;;;;;;5025936;28;20434;-50
2022/01/05 11:13:21;;;;;;;5.30;2.87;;;4.80;99.90;;;;;;5022093;28;20450;-52
2022/01/05 11:15:47;;;;;;;6.37;2.97;;;4.80;99.90;;;;;;5026397;28;20578;-49
2022/01/05 11:18:18;;;;;;;10.17;3.70;;;4.80;99.90;;;;;;5024679;28;20223;-53
2022/01/05 11:20:55;;;;;;;6.50;2.07;;;4.80;99.90;;;;;;5027077;28;20191;-51
2022/01/05 11:23:22;;;;;;;7.13;3.17;;;4.90;99.90;;;;;;5030149;28;20438;-52
2022/01/05 11:25:49;;;;;;;7.37;2.37;;;4.80;99.90;;;;;;5023279;28;20519;-51
2022/01/05 11:28:16;;;;;;;6.13;2.97;;;4.90;99.90;;;;;;5024861;28;21308;-53
2022/01/05 11:30:43;;;;;;;4.27;2.63;;;4.90;99.90;;;;;;5026393;28;20492;-52
2022/01/05 11:33:09;;;;;;;9.80;3.80;;;4.80;99.90;;;;;;5023969;28;20438;-54
2022/01/05 11:35:35;;;;;;;5.70;2.70;;;4.90;99.90;;;;;;5024992;28;20502;-49
2022/01/05 11:38:02;;;;;;;5.07;2.47;;;4.80;99.90;;;;;;5027662;28;20493;-48
2022/01/05 11:40:30;;;;;;;6.50;2.50;;;5.00;99.90;;;;;;5025959;28;20241;-52
2022/01/05 11:43:09;;;;;;;7.63;4.00;;;5.00;99.90;;;;;;5029470;28;20431;-54
2022/01/05 11:45:45;;;;;;;8.17;2.40;;;5.00;99.90;;;;;;5024927;28;20434;-52
2022/01/05 11:48:23;;;;;;;8.63;2.87;;;4.90;99.90;;;;;;5025469;28;20588;-54
2022/01/05 11:50:56;;;;;;;6.23;3.20;;;4.90;99.90;;;;;;5025604;28;20431;-49
2022/01/05 11:53:43;;;;;;;8.23;2.60;;;5.00;99.90;;;;;;5025796;28;20469;-54
2022/01/05 11:56:13;;;;;;;10.03;3.00;;;4.90;99.90;;;;;;5028133;28;20463;-54
2022/01/05 11:58:53;;;;;;;4.93;2.60;;;4.80;99.90;;;;;;5026889;28;21120;-52
2022/01/05 12:01:20;;;;;;;9.63;3.40;;;4.90;99.90;;;;;;5021539;28;20513;-55
2022/01/05 12:03:57;;;;;;;6.30;2.70;;;5.00;99.90;;;;;;5025335;28;20427;-53
2022/01/05 12:06:46;;;;;;;7.30;2.80;;;5.10;99.90;;;;;;5022574;28;20621;-50
2022/01/05 12:09:27;;;;;;;9.03;3.00;;;5.30;99.90;;;;;;5018833;28;20459;-53
2022/01/05 12:11:54;;;;;;;6.90;2.30;;;5.30;99.90;;;;;;5024806;28;20450;-53
2022/01/05 12:14:19;;;;;;;5.70;2.60;;;5.30;99.90;;;;;;5023362;28;20473;-54
2022/01/05 12:17:01;;;;;;;4.40;2.33;;;5.50;99.90;;;;;;5022028;28;20503;-51
2022/01/05 12:19:54;;;;;;;7.50;2.70;;;5.20;99.90;;;;;;5026111;28;20192;-51
2022/01/05 12:22:21;;;;;;;6.40;2.70;;;5.00;99.90;;;;;;5025690;28;20538;-55
2022/01/05 12:25:05;;;;;;;8.17;2.30;;;5.20;99.90;;;;;;5024910;28;20443;-52
2022/01/05 12:27:48;;;;;;;3.00;2.17;;;5.70;99.90;;;;;;5027878;28;20435;-54
2022/01/05 12:30:16;;;;;;;9.17;2.37;;;5.90;99.90;;;;;;5022202;28;20435;-49
2022/01/05 12:32:46;;;;;;;4.80;2.10;;;6.00;99.90;;;;;;5025858;28;20816;-52
2022/01/05 12:35:15;;;;;;;4.50;1.77;;;6.20;99.90;;;;;;5025484;28;20489;-51
2022/01/05 12:38:10;;;;;;;5.53;2.90;;;6.30;99.90;;;;;;5024841;28;20520;-51
2022/01/05 12:40:42;;;;;;;9.90;3.13;;;6.70;99.90;;;;;;5014631;28;20457;-54
2022/01/05 12:43:13;;;;;;;10.10;4.37;;;6.70;99.90;;;;;;5022770;28;20496;-54
2022/01/05 12:45:59;;;;;;;10.10;2.53;;;6.30;99.90;;;;;;5025433;28;20440;-53
2022/01/05 12:48:35;;;;;;;5.70;2.10;;;6.30;99.90;;;;;;5023783;28;21006;-51
2022/01/05 12:51:22;;;;;;;4.90;2.30;;;6.20;99.90;;;;;;5021808;28;20530;-49
2022/01/05 12:54:05;;;;;;;2.70;1.93;;;5.90;99.90;;;;;;5024991;28;20849;-53
2022/01/05 12:56:44;;;;;;;6.73;2.20;;;5.70;99.90;;;;;;5022448;28;20465;-53
2022/01/05 12:59:21;;;;;;;5.83;2.40;;;5.50;99.90;;;;;;5023838;28;20473;-52
2022/01/05 13:01:49;;;;;;;4.33;2.20;;;5.60;99.90;;;;;;5025944;28;20454;-52
2022/01/05 13:04:15;;;;;;;12.17;3.30;;;5.90;99.90;;;;;;5026417;28;20457;-52